Time;durP1;ratioP1;P1;durP2;ratioP2;P2;SDS_P1;SDS_P2;PMS_P1;PMS_P2;Temp;Humidity;BMP_temperature;BMP_pressure;BME280_temperature;BME280_humidity;BME280_pressure;Samples;Min_cycle;Max_cycle;Signal;HPM_P1;HPM_P2
2022/10/25 00:01:09;;;;;;;20.27;10.98;;;14.10;99.90;;;;;;5075237;28;20029;-80
2022/10/25 00:03:35;;;;;;;17.25;11.43;;;14.10;99.90;;;;;;5075344;28;20029;-80
2022/10/25 00:06:00;;;;;;;16.55;11.60;;;14.20;99.90;;;;;;5075337;28;20021;-79
2022/10/25 00:08:26;;;;;;;22.40;11.40;;;14.10;99.90;;;;;;5075220;28;20028;-80
2022/10/25 00:10:51;;;;;;;23.05;10.95;;;14.10;99.90;;;;;;5075272;28;20112;-79
2022/10/25 00:13:17;;;;;;;19.15;11.65;;;14.10;99.90;;;;;;5074770;28;20488;-79
2022/10/25 00:15:42;;;;;;;18.73;11.85;;;14.10;99.90;;;;;;5075039;28;20055;-80
2022/10/25 00:18:08;;;;;;;17.27;11.15;;;14.10;99.90;;;;;;5075087;28;20035;-80
2022/10/25 00:20:35;;;;;;;17.63;11.40;;;14.10;99.90;;;;;;5075019;28;20036;-79
2022/10/25 00:23:01;;;;;;;17.88;11.27;;;14.10;99.90;;;;;;5075211;28;20067;-79
2022/10/25 00:25:26;;;;;;;19.50;12.23;;;14.00;99.90;;;;;;5074923;28;20044;-79
2022/10/25 00:27:52;;;;;;;17.33;10.98;;;14.00;99.90;;;;;;5074413;28;20036;-79
2022/10/25 00:30:18;;;;;;;19.55;12.55;;;14.00;99.90;;;;;;5074786;28;20035;-79
2022/10/25 00:32:44;;;;;;;18.27;11.30;;;14.00;99.90;;;;;;5074316;28;20086;-79
2022/10/25 00:35:09;;;;;;;18.75;11.35;;;13.90;99.90;;;;;;5074803;28;20036;-79
2022/10/25 00:37:36;;;;;;;16.85;11.68;;;13.90;99.90;;;;;;5074738;28;20366;-79
2022/10/25 00:40:02;;;;;;;17.20;11.40;;;13.90;99.90;;;;;;5074742;28;20611;-79
2022/10/25 00:42:28;;;;;;;21.23;13.10;;;13.90;99.90;;;;;;5073730;28;20519;-79
2022/10/25 00:45:01;;;;;;;20.50;12.45;;;14.00;99.90;;;;;;5074560;28;20025;-79
2022/10/25 00:47:41;;;;;;;18.00;12.02;;;13.80;99.90;;;;;;5074637;28;20020;-79
2022/10/25 00:50:17;;;;;;;15.63;10.48;;;13.80;99.90;;;;;;5074486;28;20036;-79
2022/10/25 00:52:46;;;;;;;18.98;11.95;;;13.90;99.90;;;;;;5074494;28;20461;-79
2022/10/25 00:55:15;;;;;;;15.88;10.88;;;13.80;99.90;;;;;;5073906;28;20381;-79
2022/10/25 00:57:49;;;;;;;21.48;11.73;;;13.80;99.90;;;;;;5074362;28;20040;-79
2022/10/25 01:00:15;;;;;;;19.33;12.07;;;13.80;99.90;;;;;;5074265;28;20054;-79
2022/10/25 01:02:41;;;;;;;16.45;11.88;;;13.80;99.90;;;;;;5074026;28;20036;-79
2022/10/25 01:05:07;;;;;;;23.23;12.23;;;13.80;99.90;;;;;;5074152;28;20092;-79
2022/10/25 01:07:33;;;;;;;16.67;11.52;;;13.80;99.90;;;;;;5073970;28;20495;-79
2022/10/25 01:09:59;;;;;;;24.85;12.10;;;13.80;99.90;;;;;;5073838;28;20034;-79
2022/10/25 01:12:24;;;;;;;20.00;13.32;;;13.70;99.90;;;;;;5073902;28;20473;-80
2022/10/25 01:14:51;;;;;;;21.65;12.50;;;13.70;99.90;;;;;;5073906;28;20035;-79
2022/10/25 01:17:31;;;;;;;17.10;12.02;;;13.80;99.90;;;;;;5073914;28;20025;-79
2022/10/25 01:20:15;;;;;;;16.13;11.52;;;13.70;99.90;;;;;;5073780;28;20028;-79
2022/10/25 01:23:05;;;;;;;16.48;12.27;;;13.70;99.90;;;;;;5073750;28;20452;-79
2022/10/25 01:26:04;;;;;;;17.15;11.77;;;13.70;99.90;;;;;;5073396;28;20431;-79
2022/10/25 01:28:51;;;;;;;20.08;11.43;;;13.60;99.90;;;;;;5073525;28;20028;-79
2022/10/25 01:31:16;;;;;;;19.75;12.40;;;13.60;99.90;;;;;;5073286;28;20488;-79
2022/10/25 01:33:46;;;;;;;17.88;11.70;;;13.80;99.90;;;;;;5073307;28;20079;-79
2022/10/25 01:37:00;;;;;;;17.67;12.02;;;13.60;99.90;;;;;;5073632;28;20078;-79
2022/10/25 01:39:32;;;;;;;20.35;12.48;;;13.50;99.90;;;;;;5031100;28;20034;-79
2022/10/25 01:42:58;;;;;;;18.33;13.15;;;13.70;99.90;;;;;;5031400;28;20076;-79
2022/10/25 01:45:29;;;;;;;22.58;12.43;;;13.50;99.90;;;;;;4972452;28;20043;-79
2022/10/25 01:48:20;;;;;;;21.13;12.55;;;13.50;99.90;;;;;;4972504;28;20044;-79
2022/10/25 01:50:47;;;;;;;24.02;12.65;;;13.50;99.90;;;;;;4972559;28;20122;-79
2022/10/25 01:53:13;;;;;;;16.85;12.80;;;13.50;99.90;;;;;;4972011;28;20550;-80
2022/10/25 01:55:54;;;;;;;21.33;12.50;;;13.40;99.90;;;;;;4955367;28;20035;-79
2022/10/25 01:58:50;;;;;;;18.98;12.25;;;13.40;99.90;;;;;;4972351;28;20038;-80
2022/10/25 02:01:19;;;;;;;20.30;12.93;;;13.40;99.90;;;;;;4972143;28;20073;-79
2022/10/25 02:03:54;;;;;;;20.50;12.55;;;13.40;99.90;;;;;;4972198;28;20543;-79
2022/10/25 02:06:26;;;;;;;22.60;12.88;;;13.60;99.90;;;;;;4972257;28;20031;-80
2022/10/25 02:09:19;;;;;;;20.05;13.10;;;13.40;99.90;;;;;;4971924;28;20058;-79
2022/10/25 02:11:47;;;;;;;18.42;13.15;;;13.40;99.90;;;;;;4972126;28;20054;-79
2022/10/25 02:14:13;;;;;;;18.88;12.95;;;13.40;99.90;;;;;;4971989;28;20130;-79
2022/10/25 02:16:55;;;;;;;24.17;14.20;;;13.70;99.90;;;;;;5004728;28;20281;-79
2022/10/25 02:19:30;;;;;;;20.77;13.40;;;13.30;99.90;;;;;;5011073;28;20033;-79
2022/10/25 02:21:57;;;;;;;20.63;14.55;;;13.40;99.90;;;;;;5048070;28;20041;-80
2022/10/25 02:24:25;;;;;;;24.25;15.43;;;13.30;99.90;;;;;;5052335;28;20038;-80
2022/10/25 02:26:52;;;;;;;27.17;15.52;;;13.60;99.90;;;;;;5054819;28;20024;-79
2022/10/25 02:29:19;;;;;;;20.02;14.32;;;13.20;99.90;;;;;;5072771;28;20174;-79
2022/10/25 02:31:45;;;;;;;29.35;14.95;;;13.70;99.90;;;;;;5072348;28;20059;-79
2022/10/25 02:34:10;;;;;;;23.35;15.43;;;13.40;99.90;;;;;;5072559;28;20484;-80
2022/10/25 02:36:36;;;;;;;23.67;15.25;;;13.20;99.90;;;;;;5072529;28;20028;-78
2022/10/25 02:39:05;;;;;;;22.52;14.30;;;13.50;99.90;;;;;;5072649;28;20020;-79
2022/10/25 02:41:30;;;;;;;24.35;15.95;;;13.50;99.90;;;;;;5072721;28;20473;-80
2022/10/25 02:43:56;;;;;;;26.00;16.33;;;13.50;99.90;;;;;;5072464;28;20035;-80
2022/10/25 02:46:22;;;;;;;26.70;16.00;;;13.50;99.90;;;;;;5072461;28;20548;-79
2022/10/25 02:48:49;;;;;;;26.27;15.95;;;13.30;99.90;;;;;;5072611;28;20024;-79
2022/10/25 02:51:15;;;;;;;27.02;16.52;;;13.30;99.90;;;;;;5072235;28;20047;-79
2022/10/25 02:53:41;;;;;;;26.20;15.85;;;13.10;99.90;;;;;;5072328;28;20063;-79
2022/10/25 02:56:09;;;;;;;25.38;16.63;;;13.10;99.90;;;;;;5072472;28;20166;-80
2022/10/25 02:58:37;;;;;;;24.83;17.20;;;13.10;99.90;;;;;;5072470;28;20103;-79
2022/10/25 03:01:04;;;;;;;27.67;16.63;;;13.30;99.90;;;;;;5072395;28;20028;-79
2022/10/25 03:03:29;;;;;;;26.38;17.55;;;13.10;99.90;;;;;;5072219;28;20100;-79
2022/10/25 03:05:56;;;;;;;23.73;15.45;;;13.50;99.90;;;;;;5073465;28;20507;-79
2022/10/25 03:08:22;;;;;;;23.55;15.70;;;13.10;99.90;;;;;;5076334;28;20092;-79
2022/10/25 03:10:48;;;;;;;27.60;16.13;;;13.40;99.90;;;;;;5076436;28;20112;-79
2022/10/25 03:13:13;;;;;;;29.63;16.65;;;13.40;99.90;;;;;;5076164;28;20151;-79
2022/10/25 03:15:39;;;;;;;24.73;15.45;;;13.00;99.90;;;;;;5076333;28;20024;-79
2022/10/25 03:18:04;;;;;;;22.92;14.52;;;12.90;99.90;;;;;;5076190;28;20031;-79
2022/10/25 03:20:30;;;;;;;25.20;15.00;;;13.40;99.90;;;;;;5075836;28;20093;-79
2022/10/25 03:22:55;;;;;;;20.58;13.93;;;13.40;99.90;;;;;;5076147;28;20070;-79
2022/10/25 03:25:21;;;;;;;24.30;15.02;;;13.00;99.90;;;;;;5076006;28;20099;-79
2022/10/25 03:27:47;;;;;;;23.23;13.35;;;13.00;99.90;;;;;;5075999;28;20034;-79
2022/10/25 03:30:13;;;;;;;22.58;14.38;;;13.00;99.90;;;;;;5075854;28;20430;-79
2022/10/25 03:32:39;;;;;;;20.27;13.73;;;13.00;99.90;;;;;;5075450;28;20048;-80
2022/10/25 03:35:05;;;;;;;23.33;14.18;;;13.00;99.90;;;;;;5075416;28;20036;-79
2022/10/25 03:37:31;;;;;;;22.77;14.18;;;12.90;99.90;;;;;;5075906;28;20031;-79
2022/10/25 03:39:56;;;;;;;22.08;13.25;;;12.90;99.90;;;;;;5075761;28;20108;-79
2022/10/25 03:42:22;;;;;;;23.48;13.25;;;12.90;99.90;;;;;;5075696;28;20496;-80
2022/10/25 03:44:48;;;;;;;21.23;12.40;;;12.90;99.90;;;;;;5075784;28;20060;-80
2022/10/25 03:47:14;;;;;;;21.08;12.93;;;12.90;99.90;;;;;;5075661;28;20032;-80
2022/10/25 03:49:39;;;;;;;20.38;12.43;;;12.80;99.90;;;;;;5075266;28;20017;-79
2022/10/25 03:52:06;;;;;;;23.15;12.65;;;12.90;99.90;;;;;;5075651;28;20388;-79
2022/10/25 03:54:32;;;;;;;17.23;11.38;;;12.90;99.90;;;;;;5075414;28;20381;-79
2022/10/25 03:56:58;;;;;;;18.77;12.13;;;13.10;99.90;;;;;;5074091;28;20024;-79
2022/10/25 03:59:24;;;;;;;16.55;11.50;;;12.90;99.90;;;;;;5075530;28;20373;-80
2022/10/25 04:01:49;;;;;;;14.23;11.00;;;12.80;99.90;;;;;;5075362;28;20033;-79
2022/10/25 04:04:15;;;;;;;17.73;11.23;;;13.10;99.90;;;;;;5074777;28;20022;-79
2022/10/25 04:06:40;;;;;;;18.33;10.68;;;12.70;99.90;;;;;;5075331;28;20108;-80
2022/10/25 04:09:06;;;;;;;17.88;11.70;;;12.80;99.90;;;;;;5075159;28;20029;-79
2022/10/25 04:11:32;;;;;;;18.80;11.57;;;12.70;99.90;;;;;;5075284;28;20033;-79
2022/10/25 04:13:57;;;;;;;20.17;12.00;;;12.70;99.90;;;;;;5075090;28;20036;-79
2022/10/25 04:16:24;;;;;;;16.63;11.40;;;12.90;99.90;;;;;;5075086;28;20044;-80
2022/10/25 04:18:52;;;;;;;19.35;11.98;;;12.80;99.90;;;;;;5073970;28;20025;-79
2022/10/25 04:21:21;;;;;;;23.08;11.82;;;12.70;99.90;;;;;;5074988;28;20445;-79
2022/10/25 04:23:48;;;;;;;19.40;11.15;;;12.30;99.90;;;;;;5074981;28;20024;-80
2022/10/25 04:26:16;;;;;;;22.05;11.50;;;12.40;99.90;;;;;;5074912;28;20029;-80
2022/10/25 04:28:42;;;;;;;12.80;9.60;;;12.70;99.90;;;;;;5074803;28;20032;-80
2022/10/25 04:31:08;;;;;;;17.05;10.25;;;12.30;99.90;;;;;;5074718;28;20028;-79
2022/10/25 04:33:34;;;;;;;14.13;10.27;;;12.40;99.90;;;;;;5074074;28;20056;-80
2022/10/25 04:35:59;;;;;;;17.50;10.48;;;12.40;99.90;;;;;;5074786;28;20032;-79
2022/10/25 04:38:25;;;;;;;21.45;11.02;;;12.50;99.90;;;;;;5074771;28;20503;-79
2022/10/25 04:40:55;;;;;;;20.38;11.35;;;12.70;99.90;;;;;;5074795;28;20420;-79
2022/10/25 04:43:21;;;;;;;22.38;10.38;;;12.50;99.90;;;;;;5074515;28;20035;-79
2022/10/25 04:45:47;;;;;;;17.58;10.90;;;12.70;99.90;;;;;;5074514;28;20020;-79
2022/10/25 04:48:12;;;;;;;17.02;10.48;;;12.60;99.90;;;;;;5074156;28;20111;-80
2022/10/25 04:50:38;;;;;;;18.20;11.30;;;12.50;99.90;;;;;;5074457;28;20016;-79
2022/10/25 04:53:04;;;;;;;16.20;10.60;;;12.40;99.90;;;;;;5074351;28;20150;-79
2022/10/25 04:55:30;;;;;;;12.95;10.52;;;12.60;99.90;;;;;;5074488;28;20029;-79
2022/10/25 04:57:56;;;;;;;17.95;10.60;;;12.40;99.90;;;;;;5073107;28;20056;-79
2022/10/25 05:00:22;;;;;;;16.30;10.43;;;12.40;99.90;;;;;;5074247;28;20059;-79
2022/10/25 05:02:51;;;;;;;20.35;11.15;;;12.40;99.90;;;;;;5072628;28;20021;-79
2022/10/25 05:05:16;;;;;;;16.90;11.18;;;12.40;99.90;;;;;;5073993;28;20064;-79
2022/10/25 05:07:42;;;;;;;24.92;11.88;;;12.40;99.90;;;;;;5074006;28;20517;-79
2022/10/25 05:10:08;;;;;;;24.73;13.32;;;12.60;99.90;;;;;;5074103;28;20500;-79
2022/10/25 05:12:34;;;;;;;19.35;13.70;;;12.70;99.90;;;;;;5074170;28;20108;-79
2022/10/25 05:14:59;;;;;;;27.85;15.43;;;12.80;99.90;;;;;;5073776;28;20120;-79
2022/10/25 05:17:25;;;;;;;29.63;16.55;;;12.80;99.90;;;;;;5073615;28;20388;-79
2022/10/25 05:19:50;;;;;;;30.48;16.17;;;12.80;99.90;;;;;;5073833;28;20028;-79
2022/10/25 05:22:16;;;;;;;39.45;19.00;;;12.80;99.90;;;;;;5073844;28;20107;-79
2022/10/25 05:24:42;;;;;;;37.75;19.27;;;12.90;99.90;;;;;;5073705;28;20481;-79
2022/10/25 05:27:07;;;;;;;36.28;18.30;;;13.30;99.90;;;;;;5073835;28;20151;-79
2022/10/25 05:29:34;;;;;;;45.80;20.67;;;12.90;99.90;;;;;;5073510;28;20439;-79
2022/10/25 05:31:59;;;;;;;38.33;19.73;;;13.00;99.90;;;;;;5072902;28;20117;-79
2022/10/25 05:34:26;;;;;;;36.55;18.65;;;12.80;99.90;;;;;;5073521;28;20075;-79
2022/10/25 05:36:52;;;;;;;33.65;18.55;;;12.90;99.90;;;;;;5073479;28;20029;-79
2022/10/25 05:39:18;;;;;;;33.92;19.33;;;12.90;99.90;;;;;;5072380;28;20032;-80
2022/10/25 05:41:43;;;;;;;35.50;18.58;;;12.90;99.90;;;;;;5073453;28;20393;-79
2022/10/25 05:44:09;;;;;;;38.13;19.02;;;13.20;99.90;;;;;;5073394;28;20051;-80
2022/10/25 05:46:35;;;;;;;36.65;19.38;;;13.00;99.90;;;;;;5073006;28;20021;-80
2022/10/25 05:49:01;;;;;;;31.73;18.30;;;13.30;99.90;;;;;;5073177;28;20543;-80
2022/10/25 05:51:31;;;;;;;29.60;17.92;;;13.00;99.90;;;;;;5073491;28;20062;-79
2022/10/25 05:53:59;;;;;;;30.52;17.38;;;13.00;99.90;;;;;;5073084;28;20396;-80
2022/10/25 05:56:27;;;;;;;30.55;17.00;;;13.10;99.90;;;;;;5073094;28;20025;-79
2022/10/25 05:58:55;;;;;;;27.77;16.20;;;13.00;99.90;;;;;;5073181;28;20085;-79
2022/10/25 06:01:22;;;;;;;27.52;16.10;;;13.10;99.90;;;;;;5072678;28;20027;-80
2022/10/25 06:03:49;;;;;;;26.30;15.68;;;12.90;99.90;;;;;;5072990;28;20116;-79
2022/10/25 06:06:16;;;;;;;25.30;15.70;;;12.80;99.90;;;;;;5073034;28;20024;-79
2022/10/25 06:08:42;;;;;;;24.80;15.82;;;12.80;99.90;;;;;;5072846;28;20032;-79
2022/10/25 06:11:11;;;;;;;26.77;16.17;;;12.80;99.90;;;;;;5072922;28;20075;-80
2022/10/25 06:13:37;;;;;;;25.90;15.07;;;12.80;99.90;;;;;;5072632;28;20120;-79
2022/10/25 06:16:05;;;;;;;23.75;15.43;;;12.70;99.90;;;;;;5071137;28;20035;-80
2022/10/25 06:18:32;;;;;;;25.80;15.07;;;12.70;99.90;;;;;;5072828;28;20104;-79
2022/10/25 06:21:02;;;;;;;22.95;14.45;;;12.70;99.90;;;;;;5072683;28;20024;-79
2022/10/25 06:23:30;;;;;;;28.85;15.05;;;12.60;99.90;;;;;;5072726;28;20032;-79
2022/10/25 06:26:00;;;;;;;24.40;15.40;;;12.60;99.90;;;;;;5072631;28;20020;-79
2022/10/25 06:28:27;;;;;;;27.10;15.05;;;12.70;99.90;;;;;;5072748;28;20063;-79
2022/10/25 06:30:53;;;;;;;25.52;14.65;;;12.80;99.90;;;;;;5072253;28;20021;-79
2022/10/25 06:33:18;;;;;;;23.65;14.80;;;12.60;99.90;;;;;;5072412;28;20048;-79
2022/10/25 06:35:44;;;;;;;24.10;13.35;;;12.90;99.90;;;;;;5071308;28;20025;-80
2022/10/25 06:38:09;;;;;;;23.27;13.55;;;12.70;99.90;;;;;;5072602;28;20028;-80
2022/10/25 06:40:37;;;;;;;21.98;13.98;;;12.70;99.90;;;;;;5072223;28;20017;-79
2022/10/25 06:43:03;;;;;;;22.15;13.55;;;12.70;99.90;;;;;;5072502;28;20098;-79
2022/10/25 06:45:29;;;;;;;20.05;12.68;;;12.70;99.90;;;;;;5072107;28;20477;-79
2022/10/25 06:47:54;;;;;;;25.42;14.20;;;12.70;99.90;;;;;;5072465;28;20038;-79
2022/10/25 06:50:20;;;;;;;23.90;13.27;;;12.70;99.90;;;;;;5072402;28;20448;-79
2022/10/25 06:52:45;;;;;;;20.25;13.20;;;12.80;99.90;;;;;;5072392;28;20029;-80
2022/10/25 06:55:11;;;;;;;19.90;14.10;;;12.80;99.90;;;;;;5072383;28;20042;-79
2022/10/25 06:57:36;;;;;;;22.30;14.73;;;12.80;99.90;;;;;;5072209;28;20025;-78
2022/10/25 07:00:03;;;;;;;24.42;14.40;;;12.90;99.90;;;;;;5072430;28;20481;-79
2022/10/25 07:02:28;;;;;;;20.40;14.07;;;13.00;99.90;;;;;;5072396;28;20032;-80
2022/10/25 07:04:54;;;;;;;23.10;14.70;;;13.00;99.90;;;;;;5072398;28;20028;-79
2022/10/25 07:07:19;;;;;;;19.67;14.95;;;13.10;99.90;;;;;;5072278;28;20501;-79
2022/10/25 07:09:45;;;;;;;19.98;15.02;;;13.20;99.90;;;;;;5072150;28;20054;-79
2022/10/25 07:12:10;;;;;;;19.67;13.80;;;13.20;99.90;;;;;;5071973;28;20370;-79
2022/10/25 07:14:36;;;;;;;21.00;14.05;;;13.20;99.90;;;;;;5072190;28;20043;-79
2022/10/25 07:17:01;;;;;;;19.90;13.48;;;13.20;99.90;;;;;;5072107;28;20366;-79
2022/10/25 07:19:27;;;;;;;20.27;14.35;;;13.20;99.90;;;;;;5072274;28;20028;-80
2022/10/25 07:21:53;;;;;;;17.08;13.68;;;13.60;99.90;;;;;;5072050;28;20021;-79
2022/10/25 07:24:18;;;;;;;15.60;12.85;;;13.30;99.90;;;;;;5072129;28;20043;-79
2022/10/25 07:26:44;;;;;;;14.60;11.68;;;13.60;99.90;;;;;;5071806;28;20033;-79
2022/10/25 07:29:09;;;;;;;15.10;11.65;;;14.10;99.90;;;;;;5072056;28;20107;-79
2022/10/25 07:31:38;;;;;;;13.77;11.30;;;14.70;99.90;;;;;;5071710;28;20230;-79
2022/10/25 07:34:05;;;;;;;17.50;10.55;;;15.40;99.90;;;;;;5071929;28;20029;-79
2022/10/25 07:36:30;;;;;;;13.35;9.73;;;15.90;99.90;;;;;;5072092;28;20024;-80
2022/10/25 07:38:56;;;;;;;12.02;9.32;;;15.80;99.90;;;;;;5070965;28;20366;-79
2022/10/25 07:41:23;;;;;;;13.68;9.35;;;15.80;99.90;;;;;;5071626;28;20493;-80
2022/10/25 07:43:48;;;;;;;15.02;8.85;;;16.80;99.90;;;;;;5071923;28;20036;-80
2022/10/25 07:46:14;;;;;;;11.30;8.00;;;18.90;99.90;;;;;;5071908;28;20043;-80
2022/10/25 07:48:40;;;;;;;12.98;8.15;;;19.30;99.90;;;;;;5071809;28;20032;-79
2022/10/25 07:51:09;;;;;;;11.63;7.85;;;19.50;99.90;;;;;;5072013;28;20046;-80
2022/10/25 07:53:34;;;;;;;8.70;7.63;;;21.90;99.90;;;;;;5074138;28;20028;-80
2022/10/25 07:56:00;;;;;;;8.73;7.10;;;24.40;99.90;;;;;;5075137;28;20032;-80
2022/10/25 07:58:25;;;;;;;9.48;8.05;;;25.10;99.90;;;;;;5075459;28;20578;-80
2022/10/25 08:00:51;;;;;;;8.38;6.75;;;25.30;99.90;;;;;;5075484;28;20016;-80
2022/10/25 08:03:17;;;;;;;8.95;7.85;;;25.80;99.90;;;;;;5075317;28;20107;-80
2022/10/25 08:05:47;;;;;;;7.88;6.78;;;25.30;99.90;;;;;;5075157;28;20021;-80
2022/10/25 08:08:13;;;;;;;8.07;7.28;;;25.60;99.90;;;;;;5075358;28;20427;-80
2022/10/25 08:10:42;;;;;;;9.98;7.90;;;25.80;99.90;;;;;;5074901;28;20044;-80
2022/10/25 08:13:07;;;;;;;9.05;7.28;;;26.20;99.90;;;;;;5075023;28;20021;-80
2022/10/25 08:15:35;;;;;;;8.63;7.72;;;26.10;99.90;;;;;;5075175;28;20384;-80
2022/10/25 08:18:02;;;;;;;8.70;7.43;;;26.90;99.90;;;;;;5075142;28;20431;-80
2022/10/25 08:20:28;;;;;;;8.90;7.82;;;28.20;99.90;;;;;;5075098;28;20031;-80
2022/10/25 08:23:00;;;;;;;7.50;6.78;;;28.60;99.90;;;;;;5075029;28;20566;-80
2022/10/25 08:25:27;;;;;;;7.63;6.85;;;29.70;99.90;;;;;;5074594;28;20468;-80
2022/10/25 08:27:53;;;;;;;7.72;7.03;;;28.70;99.90;;;;;;5075138;28;20105;-80
2022/10/25 08:30:19;;;;;;;8.43;6.82;;;28.70;99.90;;;;;;5074850;28;20032;-80
2022/10/25 08:32:44;;;;;;;8.05;7.25;;;29.60;99.90;;;;;;5074199;28;20052;-80
2022/10/25 08:35:10;;;;;;;8.60;7.70;;;30.10;99.90;;;;;;5073423;28;20036;-80
2022/10/25 08:37:35;;;;;;;8.35;6.43;;;30.30;99.90;;;;;;5074739;28;20016;-80
2022/10/25 08:40:01;;;;;;;7.70;5.75;;;30.70;99.90;;;;;;5074390;28;20028;-80
2022/10/25 08:43:01;;;;;;;6.30;5.65;;;31.20;99.90;;;;;;5074706;28;20020;-80
2022/10/25 08:45:40;;;;;;;9.40;5.60;;;31.40;99.90;;;;;;5074816;28;20024;-80
2022/10/25 08:48:15;;;;;;;8.38;5.78;;;33.20;99.90;;;;;;5074616;28;20436;-80
2022/10/25 08:50:53;;;;;;;6.18;5.55;;;32.00;99.90;;;;;;5074610;28;20470;-80
2022/10/25 08:53:37;;;;;;;8.55;5.85;;;31.70;99.90;;;;;;5074372;28;20063;-80
2022/10/25 08:56:05;;;;;;;7.03;5.25;;;31.50;99.90;;;;;;5074464;28;20028;-80
2022/10/25 08:58:35;;;;;;;7.53;4.90;;;31.90;99.90;;;;;;5074285;28;20023;-80
2022/10/25 09:01:10;;;;;;;5.47;4.97;;;32.10;99.90;;;;;;5074288;28;20056;-80
2022/10/25 09:03:38;;;;;;;5.95;5.30;;;32.40;99.90;;;;;;5073865;28;20032;-80
2022/10/25 09:06:42;;;;;;;6.53;4.78;;;32.50;99.90;;;;;;5074226;28;20035;-80
2022/10/25 09:09:23;;;;;;;5.82;4.57;;;33.20;99.90;;;;;;5053687;28;20044;-80
2022/10/25 09:12:17;;;;;;;7.05;4.97;;;34.20;99.90;;;;;;5054089;28;20494;-80
2022/10/25 09:15:12;;;;;;;7.93;4.78;;;34.10;99.90;;;;;;5053873;28;20070;-80
2022/10/25 09:17:48;;;;;;;5.28;4.78;;;36.50;99.90;;;;;;4972820;28;20085;-80
2022/10/25 09:20:23;;;;;;;5.50;4.53;;;35.70;99.90;;;;;;4973110;28;20038;-80
2022/10/25 09:22:56;;;;;;;5.50;4.75;;;36.70;99.90;;;;;;4972465;28;20138;-81
2022/10/25 09:25:37;;;;;;;8.40;4.93;;;36.70;99.90;;;;;;4973022;28;20546;-80
2022/10/25 09:28:26;;;;;;;6.00;4.47;;;36.00;99.90;;;;;;4972935;28;20057;-80
2022/10/25 09:30:56;;;;;;;8.90;5.00;;;36.70;99.90;;;;;;4953907;28;20071;-80
2022/10/25 09:33:29;;;;;;;5.20;4.45;;;35.90;99.90;;;;;;4978933;28;20569;-81
2022/10/25 09:35:57;;;;;;;5.13;4.50;;;35.40;99.90;;;;;;4992113;28;20045;-81
2022/10/25 09:38:44;;;;;;;6.35;4.45;;;35.60;99.90;;;;;;4991759;28;20502;-80
2022/10/25 09:41:21;;;;;;;5.20;4.22;;;36.60;99.90;;;;;;4992062;28;20578;-80
2022/10/25 09:44:02;;;;;;;4.32;3.92;;;35.60;99.90;;;;;;4991835;28;20612;-80
2022/10/25 09:46:42;;;;;;;4.03;3.60;;;35.60;99.90;;;;;;4991993;28;20493;-80
2022/10/25 09:49:35;;;;;;;6.47;3.47;;;35.60;99.90;;;;;;4991953;28;20486;-80
2022/10/25 09:52:14;;;;;;;5.90;3.58;;;34.60;99.90;;;;;;4991504;28;20488;-80
2022/10/25 09:54:45;;;;;;;4.10;3.33;;;36.50;99.90;;;;;;5010240;28;20053;-80
2022/10/25 09:57:11;;;;;;;6.82;3.60;;;35.70;99.90;;;;;;5031034;28;20521;-80
2022/10/25 09:59:37;;;;;;;5.40;3.33;;;34.60;99.90;;;;;;5031075;28;20029;-80
2022/10/25 10:02:03;;;;;;;6.85;3.13;;;33.20;99.90;;;;;;5031024;28;20469;-80
2022/10/25 10:04:37;;;;;;;3.47;3.13;;;34.00;99.90;;;;;;5030931;28;20033;-81
2022/10/25 10:07:26;;;;;;;3.97;2.65;;;35.30;99.90;;;;;;5033224;28;20033;-80
2022/10/25 10:09:56;;;;;;;5.75;2.80;;;34.70;99.90;;;;;;5052459;28;20041;-80
2022/10/25 10:12:27;;;;;;;5.45;2.80;;;34.40;99.90;;;;;;5052992;28;20032;-81
2022/10/25 10:15:08;;;;;;;5.95;2.70;;;33.80;99.90;;;;;;5052400;28;20078;-81
2022/10/25 10:17:33;;;;;;;4.25;2.55;;;34.50;99.90;;;;;;5052807;28;20028;-80
2022/10/25 10:20:17;;;;;;;5.10;2.55;;;31.70;99.90;;;;;;5052812;28;20033;-81
2022/10/25 10:22:53;;;;;;;2.92;2.20;;;32.00;99.90;;;;;;5051130;28;20482;-81
2022/10/25 10:25:25;;;;;;;6.60;2.42;;;32.40;99.90;;;;;;5052710;28;20494;-81
2022/10/25 10:27:55;;;;;;;5.57;2.45;;;33.90;99.90;;;;;;5052638;28;20033;-80
2022/10/25 10:30:27;;;;;;;3.38;2.17;;;34.40;99.90;;;;;;5052668;28;20013;-80
2022/10/25 10:33:08;;;;;;;8.25;2.50;;;33.40;99.90;;;;;;5069475;28;20044;-80
2022/10/25 10:35:36;;;;;;;6.50;2.25;;;33.80;99.90;;;;;;5072334;28;20068;-80
2022/10/25 10:38:24;;;;;;;4.20;2.60;;;34.90;99.90;;;;;;5072642;28;20025;-80
2022/10/25 10:41:12;;;;;;;3.28;2.10;;;33.20;99.90;;;;;;5072761;28;20130;-80
2022/10/25 10:43:38;;;;;;;4.38;2.30;;;32.70;99.90;;;;;;5072642;28;20029;-81
2022/10/25 10:46:08;;;;;;;2.33;1.98;;;30.80;99.90;;;;;;5072588;28;20044;-80
2022/10/25 10:48:38;;;;;;;4.30;2.00;;;30.80;99.90;;;;;;5072547;28;20051;-80
2022/10/25 10:51:04;;;;;;;2.63;1.90;;;33.10;99.90;;;;;;5072175;28;20387;-81
2022/10/25 10:53:31;;;;;;;3.63;2.20;;;33.30;99.90;;;;;;5072396;28;20021;-80
2022/10/25 10:56:07;;;;;;;3.97;2.10;;;34.60;99.90;;;;;;5072468;28;20029;-80
2022/10/25 10:58:37;;;;;;;3.47;2.00;;;35.90;99.90;;;;;;5072381;28;20036;-80
2022/10/25 11:01:06;;;;;;;5.40;2.10;;;36.80;99.90;;;;;;5072403;28;20108;-80
2022/10/25 11:03:41;;;;;;;4.05;2.25;;;35.70;99.90;;;;;;5072318;28;20040;-81
2022/10/25 11:06:28;;;;;;;3.25;2.17;;;34.80;99.90;;;;;;5072132;28;20099;-81
2022/10/25 11:09:21;;;;;;;3.58;2.03;;;34.00;99.90;;;;;;5072201;28;20366;-81
2022/10/25 11:12:06;;;;;;;3.45;2.10;;;33.20;99.90;;;;;;5072287;28;20036;-80
2022/10/25 11:14:32;;;;;;;3.88;2.15;;;32.30;99.90;;;;;;5072093;28;20032;-80
2022/10/25 11:17:13;;;;;;;4.18;1.70;;;32.70;99.90;;;;;;5072138;28;20028;-81
2022/10/25 11:19:59;;;;;;;4.57;1.70;;;32.10;99.90;;;;;;5071925;28;20025;-81
2022/10/25 11:22:41;;;;;;;3.53;1.70;;;30.90;99.90;;;;;;5072102;28;20154;-80
2022/10/25 11:25:27;;;;;;;3.55;1.70;;;31.80;99.90;;;;;;5072161;28;20029;-81
2022/10/25 11:28:01;;;;;;;4.00;1.77;;;31.30;99.90;;;;;;5073849;28;20452;-81
2022/10/25 11:30:36;;;;;;;6.35;2.28;;;29.20;99.90;;;;;;5075899;28;20095;-80
2022/10/25 11:33:40;;;;;;;2.90;1.80;;;28.30;99.90;;;;;;5075460;28;20059;-80
2022/10/25 11:36:30;;;;;;;4.25;1.92;;;28.10;99.90;;;;;;5051833;28;20038;-80
2022/10/25 11:39:23;;;;;;;5.82;2.40;;;30.50;99.90;;;;;;5055850;28;20025;-80
2022/10/25 11:42:27;;;;;;;3.25;1.90;;;30.10;99.90;;;;;;5055797;28;20171;-80
2022/10/25 11:45:18;;;;;;;2.88;2.10;;;29.30;99.90;;;;;;5055838;28;20071;-80
2022/10/25 11:48:22;;;;;;;4.22;1.90;;;28.40;99.90;;;;;;5048112;28;20037;-81
2022/10/25 11:50:56;;;;;;;4.22;1.60;;;29.60;99.90;;;;;;5055636;28;20045;-81
2022/10/25 11:53:55;;;;;;;4.28;2.08;;;28.30;99.90;;;;;;5054258;28;20037;-81
2022/10/25 11:56:56;;;;;;;3.05;1.90;;;28.40;99.90;;;;;;5055616;28;20074;-80
2022/10/25 11:59:36;;;;;;;6.00;1.88;;;29.20;99.90;;;;;;5055487;28;20036;-81
2022/10/25 12:02:24;;;;;;;3.42;1.88;;;30.50;99.90;;;;;;5055396;28;20025;-80
2022/10/25 12:05:10;;;;;;;3.40;1.65;;;31.30;99.90;;;;;;5055387;28;20025;-80
2022/10/25 12:07:47;;;;;;;4.15;1.70;;;31.40;99.90;;;;;;5055419;28;20029;-80
2022/10/25 12:10:18;;;;;;;2.70;1.60;;;31.20;99.90;;;;;;5068243;28;20017;-81
2022/10/25 12:12:53;;;;;;;4.30;1.90;;;32.20;99.90;;;;;;5075246;28;20036;-80
2022/10/25 12:15:30;;;;;;;3.33;1.80;;;31.10;99.90;;;;;;5075138;28;20123;-81
2022/10/25 12:17:55;;;;;;;3.63;2.00;;;31.50;99.90;;;;;;5074833;28;20552;-80
2022/10/25 12:20:25;;;;;;;3.35;1.77;;;31.00;99.90;;;;;;5075065;28;20051;-80
2022/10/25 12:22:55;;;;;;;5.63;2.08;;;31.00;99.90;;;;;;5075031;28;20385;-81
2022/10/25 12:25:34;;;;;;;3.25;2.47;;;31.30;99.90;;;;;;5075072;28;20044;-81
2022/10/25 12:28:38;;;;;;;4.05;1.92;;;31.90;99.90;;;;;;5074711;28;20032;-80
2022/10/25 12:31:26;;;;;;;2.72;1.95;;;31.80;99.90;;;;;;4973700;28;20172;-80
2022/10/25 12:33:54;;;;;;;3.45;2.10;;;31.00;99.90;;;;;;4973697;28;20039;-80
2022/10/25 12:36:31;;;;;;;2.50;2.03;;;31.20;99.90;;;;;;4973776;28;20547;-80
2022/10/25 12:38:59;;;;;;;6.20;1.75;;;30.00;99.90;;;;;;4973246;28;20037;-80
2022/10/25 12:41:31;;;;;;;4.40;1.90;;;30.20;99.90;;;;;;4973875;28;20455;-80
2022/10/25 12:44:15;;;;;;;3.50;2.20;;;30.40;99.90;;;;;;4973747;28;20035;-80
2022/10/25 12:46:55;;;;;;;3.28;2.30;;;29.70;99.90;;;;;;4973306;28;20031;-80
2022/10/25 12:49:45;;;;;;;3.63;2.10;;;29.40;99.90;;;;;;4973671;28;20043;-81
2022/10/25 12:52:55;;;;;;;4.25;2.38;;;30.50;99.90;;;;;;4973534;28;20053;-81
2022/10/25 12:55:58;;;;;;;2.03;1.85;;;30.60;99.90;;;;;;4934967;29;20063;-80
2022/10/25 12:58:39;;;;;;;4.30;2.40;;;30.30;99.90;;;;;;4934950;29;20098;-81